sensor_id;sensor_type;location;lat;lon;timestamp;temperature;humidity
39601;DHT22;25297;44.758;11.310;2023-12-07T00:00:41;6.40;88.20
39601;DHT22;25297;44.758;11.310;2023-12-07T00:03:07;6.40;88.10
39601;DHT22;25297;44.758;11.310;2023-12-07T00:05:33;6.40;87.70
39601;DHT22;25297;44.758;11.310;2023-12-07T00:07:58;6.30;88.20
39601;DHT22;25297;44.758;11.310;2023-12-07T00:10:24;6.30;88.30
39601;DHT22;25297;44.758;11.310;2023-12-07T00:12:50;6.30;88.20
39601;DHT22;25297;44.758;11.310;2023-12-07T00:15:15;6.30;87.80
39601;DHT22;25297;44.758;11.310;2023-12-07T00:17:41;6.20;88.20
39601;DHT22;25297;44.758;11.310;2023-12-07T00:20:07;6.20;88.30
39601;DHT22;25297;44.758;11.310;2023-12-07T00:22:33;6.20;88.20
39601;DHT22;25297;44.758;11.310;2023-12-07T00:24:59;6.20;87.50
39601;DHT22;25297;44.758;11.310;2023-12-07T00:27:24;6.20;88.20
39601;DHT22;25297;44.758;11.310;2023-12-07T00:29:50;6.20;88.50
39601;DHT22;25297;44.758;11.310;2023-12-07T00:32:15;6.20;89.10
39601;DHT22;25297;44.758;11.310;2023-12-07T00:34:42;6.20;89.10
39601;DHT22;25297;44.758;11.310;2023-12-07T00:37:08;6.20;89.50
39601;DHT22;25297;44.758;11.310;2023-12-07T00:39:34;6.30;89.90
39601;DHT22;25297;44.758;11.310;2023-12-07T00:41:59;6.30;89.00
39601;DHT22;25297;44.758;11.310;2023-12-07T00:44:25;6.30;88.20
39601;DHT22;25297;44.758;11.310;2023-12-07T00:46:50;6.30;88.70
39601;DHT22;25297;44.758;11.310;2023-12-07T00:49:16;6.40;88.70
39601;DHT22;25297;44.758;11.310;2023-12-07T00:51:41;6.30;88.50
39601;DHT22;25297;44.758;11.310;2023-12-07T00:54:07;6.40;88.30
39601;DHT22;25297;44.758;11.310;2023-12-07T00:56:33;6.30;87.80
39601;DHT22;25297;44.758;11.310;2023-12-07T00:58:59;6.30;87.60
39601;DHT22;25297;44.758;11.310;2023-12-07T01:01:24;6.20;87.50
39601;DHT22;25297;44.758;11.310;2023-12-07T01:03:50;6.20;87.70
39601;DHT22;25297;44.758;11.310;2023-12-07T01:06:15;6.10;88.00
39601;DHT22;25297;44.758;11.310;2023-12-07T01:08:42;6.10;88.20
39601;DHT22;25297;44.758;11.310;2023-12-07T01:11:08;6.00;88.50
39601;DHT22;25297;44.758;11.310;2023-12-07T01:13:34;6.00;88.60
39601;DHT22;25297;44.758;11.310;2023-12-07T01:16:01;6.00;88.30
39601;DHT22;25297;44.758;11.310;2023-12-07T01:18:27;6.00;88.80
39601;DHT22;25297;44.758;11.310;2023-12-07T01:20:52;6.00;88.70
39601;DHT22;25297;44.758;11.310;2023-12-07T01:23:18;5.90;88.20
39601;DHT22;25297;44.758;11.310;2023-12-07T01:25:43;5.90;87.80
39601;DHT22;25297;44.758;11.310;2023-12-07T01:28:09;5.90;87.90
39601;DHT22;25297;44.758;11.310;2023-12-07T01:30:35;5.90;87.90
39601;DHT22;25297;44.758;11.310;2023-12-07T01:33:01;5.90;88.10
39601;DHT22;25297;44.758;11.310;2023-12-07T01:35:27;5.90;88.40
39601;DHT22;25297;44.758;11.310;2023-12-07T01:37:54;5.90;88.00
39601;DHT22;25297;44.758;11.310;2023-12-07T01:40:19;5.90;87.60
39601;DHT22;25297;44.758;11.310;2023-12-07T01:42:54;5.80;87.50
39601;DHT22;25297;44.758;11.310;2023-12-07T01:45:20;5.70;87.70
39601;DHT22;25297;44.758;11.310;2023-12-07T01:47:47;5.70;88.00
39601;DHT22;25297;44.758;11.310;2023-12-07T01:50:14;5.60;88.40
39601;DHT22;25297;44.758;11.310;2023-12-07T01:52:45;5.60;89.00
39601;DHT22;25297;44.758;11.310;2023-12-07T01:55:13;5.60;88.80
39601;DHT22;25297;44.758;11.310;2023-12-07T01:57:40;5.60;89.40
39601;DHT22;25297;44.758;11.310;2023-12-07T02:00:07;5.60;89.70
39601;DHT22;25297;44.758;11.310;2023-12-07T02:02:34;5.60;89.90
39601;DHT22;25297;44.758;11.310;2023-12-07T02:05:01;5.60;89.80
39601;DHT22;25297;44.758;11.310;2023-12-07T02:07:27;5.60;89.70
39601;DHT22;25297;44.758;11.310;2023-12-07T02:09:53;5.60;89.60
39601;DHT22;25297;44.758;11.310;2023-12-07T02:12:19;5.60;89.50
39601;DHT22;25297;44.758;11.310;2023-12-07T02:14:45;5.60;88.80
39601;DHT22;25297;44.758;11.310;2023-12-07T02:17:26;5.50;89.30
39601;DHT22;25297;44.758;11.310;2023-12-07T02:22:44;5.50;89.60
39601;DHT22;25297;44.758;11.310;2023-12-07T02:25:14;5.50;89.40
39601;DHT22;25297;44.758;11.310;2023-12-07T02:27:43;5.50;90.00
39601;DHT22;25297;44.758;11.310;2023-12-07T02:30:12;5.60;89.90
39601;DHT22;25297;44.758;11.310;2023-12-07T02:32:40;5.60;89.90
39601;DHT22;25297;44.758;11.310;2023-12-07T02:35:08;5.60;89.50
39601;DHT22;25297;44.758;11.310;2023-12-07T02:37:44;5.60;89.20
39601;DHT22;25297;44.758;11.310;2023-12-07T02:40:11;5.60;89.00
39601;DHT22;25297;44.758;11.310;2023-12-07T02:42:40;5.60;89.10
39601;DHT22;25297;44.758;11.310;2023-12-07T02:45:09;5.60;89.10
39601;DHT22;25297;44.758;11.310;2023-12-07T02:47:35;5.60;89.70
39601;DHT22;25297;44.758;11.310;2023-12-07T02:50:01;5.70;89.90
39601;DHT22;25297;44.758;11.310;2023-12-07T02:52:26;5.70;89.70
39601;DHT22;25297;44.758;11.310;2023-12-07T02:54:52;5.70;88.80
39601;DHT22;25297;44.758;11.310;2023-12-07T02:57:18;5.60;89.20
39601;DHT22;25297;44.758;11.310;2023-12-07T02:59:43;5.60;89.00
39601;DHT22;25297;44.758;11.310;2023-12-07T03:02:09;5.60;89.10
39601;DHT22;25297;44.758;11.310;2023-12-07T03:04:35;5.60;89.00
39601;DHT22;25297;44.758;11.310;2023-12-07T03:07:00;5.60;89.50
39601;DHT22;25297;44.758;11.310;2023-12-07T03:09:26;5.60;89.80
39601;DHT22;25297;44.758;11.310;2023-12-07T03:11:51;5.60;90.00
39601;DHT22;25297;44.758;11.310;2023-12-07T03:14:17;5.70;89.40
39601;DHT22;25297;44.758;11.310;2023-12-07T03:16:45;5.60;89.80
39601;DHT22;25297;44.758;11.310;2023-12-07T03:19:10;5.70;89.70
39601;DHT22;25297;44.758;11.310;2023-12-07T03:21:39;5.70;88.90
39601;DHT22;25297;44.758;11.310;2023-12-07T03:24:06;5.60;88.80
39601;DHT22;25297;44.758;11.310;2023-12-07T03:26:33;5.60;89.00
39601;DHT22;25297;44.758;11.310;2023-12-07T03:28:59;5.60;89.50
39601;DHT22;25297;44.758;11.310;2023-12-07T03:31:25;5.60;90.00
39601;DHT22;25297;44.758;11.310;2023-12-07T03:33:50;5.70;90.00
39601;DHT22;25297;44.758;11.310;2023-12-07T03:36:16;5.70;89.50
39601;DHT22;25297;44.758;11.310;2023-12-07T03:38:42;5.80;89.30
39601;DHT22;25297;44.758;11.310;2023-12-07T03:41:08;5.80;89.40
39601;DHT22;25297;44.758;11.310;2023-12-07T03:43:33;5.80;89.60
39601;DHT22;25297;44.758;11.310;2023-12-07T03:45:59;5.80;88.80
39601;DHT22;25297;44.758;11.310;2023-12-07T03:48:25;5.80;88.90
39601;DHT22;25297;44.758;11.310;2023-12-07T03:50:50;5.80;88.60
39601;DHT22;25297;44.758;11.310;2023-12-07T03:53:16;5.80;89.10
39601;DHT22;25297;44.758;11.310;2023-12-07T03:55:42;5.90;88.60
39601;DHT22;25297;44.758;11.310;2023-12-07T03:58:08;5.80;88.80
39601;DHT22;25297;44.758;11.310;2023-12-07T04:00:34;5.90;88.70
39601;DHT22;25297;44.758;11.310;2023-12-07T04:02:59;5.80;88.60
39601;DHT22;25297;44.758;11.310;2023-12-07T04:05:25;5.80;88.20
39601;DHT22;25297;44.758;11.310;2023-12-07T04:07:50;5.80;88.80
39601;DHT22;25297;44.758;11.310;2023-12-07T04:10:16;5.80;88.60
39601;DHT22;25297;44.758;11.310;2023-12-07T04:12:42;5.80;88.80
39601;DHT22;25297;44.758;11.310;2023-12-07T04:15:08;5.80;88.80
39601;DHT22;25297;44.758;11.310;2023-12-07T04:17:33;5.80;88.80
39601;DHT22;25297;44.758;11.310;2023-12-07T04:19:59;5.80;88.90
39601;DHT22;25297;44.758;11.310;2023-12-07T04:22:25;5.80;88.90
39601;DHT22;25297;44.758;11.310;2023-12-07T04:24:50;5.80;88.40
39601;DHT22;25297;44.758;11.310;2023-12-07T04:27:16;5.80;88.90
39601;DHT22;25297;44.758;11.310;2023-12-07T04:29:41;5.80;88.90
39601;DHT22;25297;44.758;11.310;2023-12-07T04:32:08;5.80;88.60
39601;DHT22;25297;44.758;11.310;2023-12-07T04:34:33;5.90;88.00
39601;DHT22;25297;44.758;11.310;2023-12-07T04:36:59;5.80;88.50
39601;DHT22;25297;44.758;11.310;2023-12-07T04:39:25;5.90;88.60
39601;DHT22;25297;44.758;11.310;2023-12-07T04:41:50;5.90;88.60
39601;DHT22;25297;44.758;11.310;2023-12-07T04:44:16;5.90;87.70
39601;DHT22;25297;44.758;11.310;2023-12-07T04:46:43;5.90;88.10
39601;DHT22;25297;44.758;11.310;2023-12-07T04:49:08;5.90;88.10
39601;DHT22;25297;44.758;11.310;2023-12-07T04:51:34;5.90;88.20
39601;DHT22;25297;44.758;11.310;2023-12-07T04:54:00;5.90;88.10
39601;DHT22;25297;44.758;11.310;2023-12-07T04:56:26;5.90;87.90
39601;DHT22;25297;44.758;11.310;2023-12-07T04:58:51;5.90;87.90
39601;DHT22;25297;44.758;11.310;2023-12-07T05:01:17;5.90;87.60
39601;DHT22;25297;44.758;11.310;2023-12-07T05:03:44;5.90;87.80
39601;DHT22;25297;44.758;11.310;2023-12-07T05:06:10;5.90;87.20
39601;DHT22;25297;44.758;11.310;2023-12-07T05:08:36;5.90;87.80
39601;DHT22;25297;44.758;11.310;2023-12-07T05:11:01;5.80;87.60
39601;DHT22;25297;44.758;11.310;2023-12-07T05:13:27;5.80;87.60
39601;DHT22;25297;44.758;11.310;2023-12-07T05:15:52;5.80;87.40
39601;DHT22;25297;44.758;11.310;2023-12-07T05:18:18;5.80;88.10
39601;DHT22;25297;44.758;11.310;2023-12-07T05:20:44;5.80;87.80
39601;DHT22;25297;44.758;11.310;2023-12-07T05:23:09;5.90;87.90
39601;DHT22;25297;44.758;11.310;2023-12-07T05:25:35;5.90;87.50
39601;DHT22;25297;44.758;11.310;2023-12-07T05:28:01;5.90;87.80
39601;DHT22;25297;44.758;11.310;2023-12-07T05:30:26;5.90;87.70
39601;DHT22;25297;44.758;11.310;2023-12-07T05:32:53;5.90;87.80
39601;DHT22;25297;44.758;11.310;2023-12-07T05:35:19;5.80;86.90
39601;DHT22;25297;44.758;11.310;2023-12-07T05:37:45;5.80;87.60
39601;DHT22;25297;44.758;11.310;2023-12-07T05:40:11;5.80;87.60
39601;DHT22;25297;44.758;11.310;2023-12-07T05:42:39;5.80;87.80
39601;DHT22;25297;44.758;11.310;2023-12-07T05:45:06;5.80;87.30
39601;DHT22;25297;44.758;11.310;2023-12-07T05:47:32;5.80;87.60
39601;DHT22;25297;44.758;11.310;2023-12-07T05:49:57;5.80;87.50
39601;DHT22;25297;44.758;11.310;2023-12-07T05:52:25;5.80;87.40
39601;DHT22;25297;44.758;11.310;2023-12-07T05:54:50;5.80;87.80
39601;DHT22;25297;44.758;11.310;2023-12-07T05:57:16;5.80;87.70
39601;DHT22;25297;44.758;11.310;2023-12-07T05:59:42;5.90;87.70
39601;DHT22;25297;44.758;11.310;2023-12-07T06:02:08;5.90;87.80
39601;DHT22;25297;44.758;11.310;2023-12-07T06:04:34;6.00;87.70
39601;DHT22;25297;44.758;11.310;2023-12-07T06:07:00;6.00;87.90
39601;DHT22;25297;44.758;11.310;2023-12-07T06:09:25;6.10;87.60
39601;DHT22;25297;44.758;11.310;2023-12-07T06:11:51;6.10;87.10
39601;DHT22;25297;44.758;11.310;2023-12-07T06:14:17;6.00;86.30
39601;DHT22;25297;44.758;11.310;2023-12-07T06:16:42;6.00;86.80
39601;DHT22;25297;44.758;11.310;2023-12-07T06:19:08;6.00;86.90
39601;DHT22;25297;44.758;11.310;2023-12-07T06:21:33;6.00;87.10
39601;DHT22;25297;44.758;11.310;2023-12-07T06:23:59;6.00;87.10
39601;DHT22;25297;44.758;11.310;2023-12-07T06:26:25;6.10;86.90
39601;DHT22;25297;44.758;11.310;2023-12-07T06:28:50;6.10;86.40
39601;DHT22;25297;44.758;11.310;2023-12-07T06:31:16;6.00;85.90
39601;DHT22;25297;44.758;11.310;2023-12-07T06:33:45;6.00;85.90
39601;DHT22;25297;44.758;11.310;2023-12-07T06:36:11;6.00;85.50
39601;DHT22;25297;44.758;11.310;2023-12-07T06:38:37;6.00;85.80
39601;DHT22;25297;44.758;11.310;2023-12-07T06:41:04;5.90;85.70
39601;DHT22;25297;44.758;11.310;2023-12-07T06:43:29;5.90;86.00
39601;DHT22;25297;44.758;11.310;2023-12-07T06:45:55;5.80;85.80
39601;DHT22;25297;44.758;11.310;2023-12-07T06:48:21;5.80;86.30
39601;DHT22;25297;44.758;11.310;2023-12-07T06:50:47;5.80;85.60
39601;DHT22;25297;44.758;11.310;2023-12-07T06:53:14;5.80;85.30
39601;DHT22;25297;44.758;11.310;2023-12-07T06:55:41;5.70;85.30
39601;DHT22;25297;44.758;11.310;2023-12-07T06:58:08;5.70;86.00
39601;DHT22;25297;44.758;11.310;2023-12-07T07:00:35;5.70;85.80
39601;DHT22;25297;44.758;11.310;2023-12-07T07:03:01;5.80;85.90
39601;DHT22;25297;44.758;11.310;2023-12-07T07:05:27;5.70;85.50
39601;DHT22;25297;44.758;11.310;2023-12-07T07:07:53;5.70;86.10
39601;DHT22;25297;44.758;11.310;2023-12-07T07:10:18;5.70;86.30
39601;DHT22;25297;44.758;11.310;2023-12-07T07:12:44;5.70;86.50
39601;DHT22;25297;44.758;11.310;2023-12-07T07:15:10;5.70;86.60
39601;DHT22;25297;44.758;11.310;2023-12-07T07:17:35;5.60;86.60
39601;DHT22;25297;44.758;11.310;2023-12-07T07:20:01;5.60;86.80
39601;DHT22;25297;44.758;11.310;2023-12-07T07:22:26;5.70;86.90
39601;DHT22;25297;44.758;11.310;2023-12-07T07:24:52;5.70;86.90
39601;DHT22;25297;44.758;11.310;2023-12-07T07:27:18;5.70;87.00
39601;DHT22;25297;44.758;11.310;2023-12-07T07:29:43;5.70;87.10
39601;DHT22;25297;44.758;11.310;2023-12-07T07:32:09;5.70;87.30
39601;DHT22;25297;44.758;11.310;2023-12-07T07:34:36;5.70;86.80
39601;DHT22;25297;44.758;11.310;2023-12-07T07:37:01;5.70;87.30
39601;DHT22;25297;44.758;11.310;2023-12-07T07:39:28;5.70;87.10
39601;DHT22;25297;44.758;11.310;2023-12-07T07:41:54;5.70;87.10
39601;DHT22;25297;44.758;11.310;2023-12-07T07:44:19;5.80;87.40
39601;DHT22;25297;44.758;11.310;2023-12-07T07:46:45;5.80;87.40
39601;DHT22;25297;44.758;11.310;2023-12-07T07:49:11;5.80;87.20
39601;DHT22;25297;44.758;11.310;2023-12-07T07:51:37;5.90;87.20
39601;DHT22;25297;44.758;11.310;2023-12-07T07:54:04;5.90;87.30
39601;DHT22;25297;44.758;11.310;2023-12-07T07:56:29;5.90;87.40
39601;DHT22;25297;44.758;11.310;2023-12-07T07:58:55;6.00;87.60
39601;DHT22;25297;44.758;11.310;2023-12-07T08:01:21;6.00;87.60
39601;DHT22;25297;44.758;11.310;2023-12-07T08:03:46;6.10;87.60
39601;DHT22;25297;44.758;11.310;2023-12-07T08:06:12;6.10;87.20
39601;DHT22;25297;44.758;11.310;2023-12-07T08:08:38;6.10;87.50
39601;DHT22;25297;44.758;11.310;2023-12-07T08:11:03;6.20;87.40
39601;DHT22;25297;44.758;11.310;2023-12-07T08:13:30;6.20;87.10
39601;DHT22;25297;44.758;11.310;2023-12-07T08:15:56;6.20;86.60
39601;DHT22;25297;44.758;11.310;2023-12-07T08:18:22;6.30;87.20
39601;DHT22;25297;44.758;11.310;2023-12-07T08:20:47;6.30;87.30
39601;DHT22;25297;44.758;11.310;2023-12-07T08:23:13;6.40;87.20
39601;DHT22;25297;44.758;11.310;2023-12-07T08:25:39;6.40;87.10
39601;DHT22;25297;44.758;11.310;2023-12-07T08:28:05;6.40;87.10
39601;DHT22;25297;44.758;11.310;2023-12-07T08:30:31;6.50;87.30
39601;DHT22;25297;44.758;11.310;2023-12-07T08:32:56;6.50;87.30
39601;DHT22;25297;44.758;11.310;2023-12-07T08:35:22;6.60;87.30
39601;DHT22;25297;44.758;11.310;2023-12-07T08:37:48;6.60;87.30
39601;DHT22;25297;44.758;11.310;2023-12-07T08:40:14;6.70;87.40
39601;DHT22;25297;44.758;11.310;2023-12-07T08:42:46;6.70;87.40
39601;DHT22;25297;44.758;11.310;2023-12-07T08:45:12;6.70;86.90
39601;DHT22;25297;44.758;11.310;2023-12-07T08:47:39;6.80;87.60
39601;DHT22;25297;44.758;11.310;2023-12-07T08:50:05;6.90;87.40
39601;DHT22;25297;44.758;11.310;2023-12-07T08:52:33;7.00;87.10
39601;DHT22;25297;44.758;11.310;2023-12-07T08:54:59;7.10;86.50
39601;DHT22;25297;44.758;11.310;2023-12-07T08:57:24;7.10;86.70
39601;DHT22;25297;44.758;11.310;2023-12-07T08:59:50;7.20;87.00
39601;DHT22;25297;44.758;11.310;2023-12-07T09:02:16;7.20;86.80
39601;DHT22;25297;44.758;11.310;2023-12-07T09:04:42;7.30;86.80
39601;DHT22;25297;44.758;11.310;2023-12-07T09:07:07;7.40;87.00
39601;DHT22;25297;44.758;11.310;2023-12-07T09:09:34;7.60;86.80
39601;DHT22;25297;44.758;11.310;2023-12-07T09:12:00;7.70;86.80
39601;DHT22;25297;44.758;11.310;2023-12-07T09:14:26;7.70;86.50
39601;DHT22;25297;44.758;11.310;2023-12-07T09:16:52;7.90;86.30
39601;DHT22;25297;44.758;11.310;2023-12-07T09:19:18;8.00;86.30
39601;DHT22;25297;44.758;11.310;2023-12-07T09:21:43;8.10;85.90
39601;DHT22;25297;44.758;11.310;2023-12-07T09:24:09;8.20;85.60
39601;DHT22;25297;44.758;11.310;2023-12-07T09:26:35;8.30;85.70
39601;DHT22;25297;44.758;11.310;2023-12-07T09:29:01;8.40;85.50
39601;DHT22;25297;44.758;11.310;2023-12-07T09:31:28;8.50;85.50
39601;DHT22;25297;44.758;11.310;2023-12-07T09:33:53;8.60;85.20
39601;DHT22;25297;44.758;11.310;2023-12-07T09:36:19;8.60;84.50
39601;DHT22;25297;44.758;11.310;2023-12-07T09:38:46;8.70;84.50
39601;DHT22;25297;44.758;11.310;2023-12-07T09:41:12;8.70;84.20
39601;DHT22;25297;44.758;11.310;2023-12-07T09:43:38;8.70;83.80
39601;DHT22;25297;44.758;11.310;2023-12-07T09:46:05;8.70;83.80
39601;DHT22;25297;44.758;11.310;2023-12-07T09:48:31;8.80;83.90
39601;DHT22;25297;44.758;11.310;2023-12-07T09:50:59;8.80;83.60
39601;DHT22;25297;44.758;11.310;2023-12-07T09:53:27;8.80;83.90
39601;DHT22;25297;44.758;11.310;2023-12-07T09:55:54;8.80;83.80
39601;DHT22;25297;44.758;11.310;2023-12-07T09:58:20;8.90;84.00
39601;DHT22;25297;44.758;11.310;2023-12-07T10:00:47;8.90;84.00
39601;DHT22;25297;44.758;11.310;2023-12-07T10:03:22;8.90;84.30
39601;DHT22;25297;44.758;11.310;2023-12-07T10:05:58;9.00;84.60
39601;DHT22;25297;44.758;11.310;2023-12-07T10:08:29;9.00;84.10
39601;DHT22;25297;44.758;11.310;2023-12-07T10:11:08;9.10;84.00
39601;DHT22;25297;44.758;11.310;2023-12-07T10:13:36;9.10;84.40
39601;DHT22;25297;44.758;11.310;2023-12-07T10:16:08;9.10;84.30
39601;DHT22;25297;44.758;11.310;2023-12-07T10:18:35;9.20;84.60
39601;DHT22;25297;44.758;11.310;2023-12-07T10:21:01;9.20;85.10
39601;DHT22;25297;44.758;11.310;2023-12-07T10:23:28;9.30;85.00
39601;DHT22;25297;44.758;11.310;2023-12-07T10:25:54;9.30;85.10
39601;DHT22;25297;44.758;11.310;2023-12-07T10:28:21;9.40;84.50
39601;DHT22;25297;44.758;11.310;2023-12-07T10:30:47;9.40;84.80
39601;DHT22;25297;44.758;11.310;2023-12-07T10:33:12;9.50;84.80
39601;DHT22;25297;44.758;11.310;2023-12-07T10:35:42;9.50;84.40
39601;DHT22;25297;44.758;11.310;2023-12-07T10:38:09;9.60;84.60
39601;DHT22;25297;44.758;11.310;2023-12-07T10:40:35;9.60;84.60
39601;DHT22;25297;44.758;11.310;2023-12-07T10:43:05;9.60;84.60
39601;DHT22;25297;44.758;11.310;2023-12-07T10:45:32;9.60;84.60
39601;DHT22;25297;44.758;11.310;2023-12-07T10:48:09;9.60;84.80
39601;DHT22;25297;44.758;11.310;2023-12-07T10:50:45;9.70;84.70
39601;DHT22;25297;44.758;11.310;2023-12-07T10:53:33;9.70;85.30
39601;DHT22;25297;44.758;11.310;2023-12-07T10:56:10;9.80;85.60
39601;DHT22;25297;44.758;11.310;2023-12-07T10:58:36;9.80;85.70
39601;DHT22;25297;44.758;11.310;2023-12-07T11:01:02;9.80;86.50
39601;DHT22;25297;44.758;11.310;2023-12-07T11:03:28;9.80;85.80
39601;DHT22;25297;44.758;11.310;2023-12-07T11:05:55;9.80;86.00
39601;DHT22;25297;44.758;11.310;2023-12-07T11:08:31;9.80;86.20
39601;DHT22;25297;44.758;11.310;2023-12-07T11:13:36;9.80;85.10
39601;DHT22;25297;44.758;11.310;2023-12-07T11:16:03;9.80;85.70
39601;DHT22;25297;44.758;11.310;2023-12-07T11:18:29;9.80;86.10
39601;DHT22;25297;44.758;11.310;2023-12-07T11:20:56;9.80;86.30
39601;DHT22;25297;44.758;11.310;2023-12-07T11:23:22;9.90;86.50
39601;DHT22;25297;44.758;11.310;2023-12-07T11:25:49;9.90;86.60
39601;DHT22;25297;44.758;11.310;2023-12-07T11:28:37;9.90;87.10
39601;DHT22;25297;44.758;11.310;2023-12-07T11:31:06;9.90;86.70
39601;DHT22;25297;44.758;11.310;2023-12-07T11:33:32;10.00;87.80
39601;DHT22;25297;44.758;11.310;2023-12-07T11:38:27;10.00;87.00
39601;DHT22;25297;44.758;11.310;2023-12-07T11:40:54;10.00;86.60
39601;DHT22;25297;44.758;11.310;2023-12-07T11:45:59;10.10;86.90
39601;DHT22;25297;44.758;11.310;2023-12-07T11:48:25;10.10;87.10
39601;DHT22;25297;44.758;11.310;2023-12-07T11:51:02;10.10;87.60
39601;DHT22;25297;44.758;11.310;2023-12-07T11:53:29;10.20;87.20
39601;DHT22;25297;44.758;11.310;2023-12-07T11:55:59;10.20;87.10
39601;DHT22;25297;44.758;11.310;2023-12-07T11:58:29;10.20;87.70
39601;DHT22;25297;44.758;11.310;2023-12-07T12:00:56;10.30;87.10
39601;DHT22;25297;44.758;11.310;2023-12-07T12:03:26;10.30;87.00
39601;DHT22;25297;44.758;11.310;2023-12-07T12:05:52;10.40;87.20
39601;DHT22;25297;44.758;11.310;2023-12-07T12:08:18;10.40;87.00
39601;DHT22;25297;44.758;11.310;2023-12-07T12:10:46;10.40;86.90
39601;DHT22;25297;44.758;11.310;2023-12-07T12:13:29;10.50;87.30
39601;DHT22;25297;44.758;11.310;2023-12-07T12:15:56;10.50;87.20
39601;DHT22;25297;44.758;11.310;2023-12-07T12:18:22;10.60;87.00
39601;DHT22;25297;44.758;11.310;2023-12-07T12:20:50;10.60;86.30
39601;DHT22;25297;44.758;11.310;2023-12-07T12:23:16;10.60;86.40
39601;DHT22;25297;44.758;11.310;2023-12-07T12:25:42;10.70;86.30
39601;DHT22;25297;44.758;11.310;2023-12-07T12:28:08;10.70;86.20
39601;DHT22;25297;44.758;11.310;2023-12-07T12:30:35;10.70;85.90
39601;DHT22;25297;44.758;11.310;2023-12-07T12:33:01;10.80;85.80
39601;DHT22;25297;44.758;11.310;2023-12-07T12:35:28;10.80;84.70
39601;DHT22;25297;44.758;11.310;2023-12-07T12:37:54;10.90;85.20
39601;DHT22;25297;44.758;11.310;2023-12-07T12:40:21;10.90;85.40
39601;DHT22;25297;44.758;11.310;2023-12-07T12:42:52;11.00;85.50
39601;DHT22;25297;44.758;11.310;2023-12-07T12:45:18;11.10;85.90
39601;DHT22;25297;44.758;11.310;2023-12-07T12:47:45;11.20;86.30
39601;DHT22;25297;44.758;11.310;2023-12-07T12:50:12;11.30;86.20
39601;DHT22;25297;44.758;11.310;2023-12-07T12:52:41;11.40;86.00
39601;DHT22;25297;44.758;11.310;2023-12-07T12:55:10;11.50;85.30
39601;DHT22;25297;44.758;11.310;2023-12-07T12:57:37;11.60;84.80
39601;DHT22;25297;44.758;11.310;2023-12-07T13:00:04;11.70;85.00
39601;DHT22;25297;44.758;11.310;2023-12-07T13:02:30;11.80;85.30
39601;DHT22;25297;44.758;11.310;2023-12-07T13:04:55;12.00;84.60
39601;DHT22;25297;44.758;11.310;2023-12-07T13:07:23;12.10;84.00
39601;DHT22;25297;44.758;11.310;2023-12-07T13:09:50;12.20;83.20
39601;DHT22;25297;44.758;11.310;2023-12-07T13:12:16;12.30;83.00
39601;DHT22;25297;44.758;11.310;2023-12-07T13:14:41;12.50;82.20
39601;DHT22;25297;44.758;11.310;2023-12-07T13:17:07;12.40;82.60
39601;DHT22;25297;44.758;11.310;2023-12-07T13:19:33;12.50;82.10
39601;DHT22;25297;44.758;11.310;2023-12-07T13:22:02;12.60;82.10
39601;DHT22;25297;44.758;11.310;2023-12-07T13:24:31;12.60;81.40
39601;DHT22;25297;44.758;11.310;2023-12-07T13:26:57;12.70;81.40
39601;DHT22;25297;44.758;11.310;2023-12-07T13:29:25;12.70;80.70
39601;DHT22;25297;44.758;11.310;2023-12-07T13:31:51;12.70;80.70
39601;DHT22;25297;44.758;11.310;2023-12-07T13:34:16;12.70;80.40
39601;DHT22;25297;44.758;11.310;2023-12-07T13:36:42;12.70;80.50
39601;DHT22;25297;44.758;11.310;2023-12-07T13:39:08;12.80;80.80
39601;DHT22;25297;44.758;11.310;2023-12-07T13:41:34;12.80;80.50
39601;DHT22;25297;44.758;11.310;2023-12-07T13:44:00;12.80;80.50
39601;DHT22;25297;44.758;11.310;2023-12-07T13:46:27;12.80;81.40
39601;DHT22;25297;44.758;11.310;2023-12-07T13:48:52;12.80;80.60
39601;DHT22;25297;44.758;11.310;2023-12-07T13:51:18;12.70;80.50
39601;DHT22;25297;44.758;11.310;2023-12-07T13:53:44;12.70;80.50
39601;DHT22;25297;44.758;11.310;2023-12-07T13:56:09;12.70;80.60
39601;DHT22;25297;44.758;11.310;2023-12-07T13:58:35;12.70;80.80
39601;DHT22;25297;44.758;11.310;2023-12-07T14:01:01;12.60;80.60
39601;DHT22;25297;44.758;11.310;2023-12-07T14:03:27;12.60;81.00
39601;DHT22;25297;44.758;11.310;2023-12-07T14:05:53;12.50;81.10
39601;DHT22;25297;44.758;11.310;2023-12-07T14:08:18;12.50;81.30
39601;DHT22;25297;44.758;11.310;2023-12-07T14:10:44;12.50;81.30
39601;DHT22;25297;44.758;11.310;2023-12-07T14:13:10;12.40;81.60
39601;DHT22;25297;44.758;11.310;2023-12-07T14:15:36;12.40;81.70
39601;DHT22;25297;44.758;11.310;2023-12-07T14:18:02;12.40;82.10
39601;DHT22;25297;44.758;11.310;2023-12-07T14:20:28;12.30;81.90
39601;DHT22;25297;44.758;11.310;2023-12-07T14:22:55;12.30;82.10
39601;DHT22;25297;44.758;11.310;2023-12-07T14:25:21;12.30;82.10
39601;DHT22;25297;44.758;11.310;2023-12-07T14:27:47;12.20;82.10
39601;DHT22;25297;44.758;11.310;2023-12-07T14:30:13;12.30;82.20
39601;DHT22;25297;44.758;11.310;2023-12-07T14:32:38;12.30;82.80
39601;DHT22;25297;44.758;11.310;2023-12-07T14:35:07;12.30;82.80
39601;DHT22;25297;44.758;11.310;2023-12-07T14:37:32;12.30;82.80
39601;DHT22;25297;44.758;11.310;2023-12-07T14:39:58;12.20;82.90
39601;DHT22;25297;44.758;11.310;2023-12-07T14:42:24;12.20;83.00
39601;DHT22;25297;44.758;11.310;2023-12-07T14:44:49;12.20;83.10
39601;DHT22;25297;44.758;11.310;2023-12-07T14:47:15;12.10;82.90
39601;DHT22;25297;44.758;11.310;2023-12-07T14:49:41;12.10;83.20
39601;DHT22;25297;44.758;11.310;2023-12-07T14:52:07;12.10;83.30
39601;DHT22;25297;44.758;11.310;2023-12-07T14:54:32;12.10;83.30
39601;DHT22;25297;44.758;11.310;2023-12-07T14:57:01;12.10;83.40
39601;DHT22;25297;44.758;11.310;2023-12-07T14:59:28;12.00;83.20
39601;DHT22;25297;44.758;11.310;2023-12-07T15:01:54;12.00;83.20
39601;DHT22;25297;44.758;11.310;2023-12-07T15:04:20;12.00;83.20
39601;DHT22;25297;44.758;11.310;2023-12-07T15:06:45;11.90;83.90
39601;DHT22;25297;44.758;11.310;2023-12-07T15:09:11;11.90;83.30
39601;DHT22;25297;44.758;11.310;2023-12-07T15:11:37;11.80;83.30
39601;DHT22;25297;44.758;11.310;2023-12-07T15:14:04;11.70;83.60
39601;DHT22;25297;44.758;11.310;2023-12-07T15:16:29;11.60;83.70
39601;DHT22;25297;44.758;11.310;2023-12-07T15:18:55;11.50;84.10
39601;DHT22;25297;44.758;11.310;2023-12-07T15:21:21;11.40;84.30
39601;DHT22;25297;44.758;11.310;2023-12-07T15:26:14;11.30;83.80
39601;DHT22;25297;44.758;11.310;2023-12-07T15:28:41;11.20;84.40
39601;DHT22;25297;44.758;11.310;2023-12-07T15:31:07;11.10;84.40
39601;DHT22;25297;44.758;11.310;2023-12-07T15:33:34;11.00;84.80
39601;DHT22;25297;44.758;11.310;2023-12-07T15:36:01;11.00;84.90